PTAO2: Poteau River, Poteau, OK

Data processed at Sun Dec 16 2018 23:32


All information presented herein is the property of the government of the United States of America and may be revised or deleted at any time without prior notice.
Dissemination of this information without the expressed written consent of the Public Affairs Office, Tulsa District U.S. Army Corps of Engineers is strictly prohibited.
These data are gathered electronically and, as presented, have not undergone any form of quality control. These data are not guaranteed to be valid or correct.
Go to home page.
Go to station list.
Go to home page.

Upstream stations:

Downstream station:
Previous Day
Next Day
Current Day
    
SHEF ID:       PTAO2     Poteau River at Poteau, OK
STATION TYPE:  

               PRECIP     STAGE  RIV-FLOW   VOLTAGE  BAT-LOAD
                   in        ft       cfs      volt      volt
              Ccp-Rev   Ccp-Rev   Ccp-Rev   Ccp-Rev   Ccp-Rev
(US/Central)
12/16 00:00      0.00     12.92      3860     12.65     12.49
12/16 01:00      0.00     12.60      3755     12.57     12.49
12/16 02:00      0.00     12.27      3647     12.49     12.49
12/16 03:00      0.00     11.94      3539     12.57     12.41
12/16 04:00      0.00     11.61      3431     12.57     12.41
12/16 05:00      0.00     11.26      3316     12.49     12.41
12/16 06:00      0.00     10.91      3191     12.49     12.33
12/16 07:00      0.00     10.53      3051     12.49     12.33
12/16 08:00      0.00     10.15      2912     12.57     12.33
12/16 09:00      0.00      9.76      2770     13.05     12.65
12/16 10:00      0.00      9.38      2632     13.76     13.29
12/16 11:00      0.00      9.02      2502     13.44     13.29
12/16 12:00      0.00      8.65      2369     13.37     13.29
12/16 13:00      0.00      8.31      2248     13.37     13.29
12/16 14:00      0.00      7.97      2127     13.44     13.21
12/16 15:00      0.00      7.65      2014     13.44     13.21
12/16 16:00      0.00      7.35      1908     13.60     13.21
12/16 17:00      0.00      7.08      1814     13.21     13.21
12/16 18:00      0.00      6.82      1723     12.97     12.89
12/16 19:00      0.00      6.60      1647     12.81     12.73
12/16 20:00      0.00      6.38      1571     12.73     12.65
12/16 21:00      0.00      6.19      1507     12.65     12.57
12/16 22:00      0.00      6.03      1454     12.65     12.57
12/16 23:00      ----      ----      ----      ----      ----